Delburne, Canada
Current Conditions -  °F | °C
As of 3:00 AM on Monday 22 Dec 2014 (Local Time) from CYQF Reporting Station
Broken Clouds Broken Clouds  
Wind Chill: 21°   Ceiling: 8500
Heat Index: 27°   Visibility: 15mi
Dew Point: 23°   Wind: 5mph
Humidity: 86%   Direction: 190°S
Pressure: 29.67"   Gusts: NA
Location:  52.2°N, 113.23°W
Report Text: CYQF 221000Z 19004KT 15SM BKN085 M03/M05 A2967 RMK AC7 SLP088
Loading
Personal Weather Stations






























Interactive Weather Map New forecast layout! Learn more

10-Day Weather Forecast

Advertisements
Track Severe Weather on mobile